Airfield :
LOGIN :

Register | Disclaimer

   EN    FR    IT 

 










Legend :    VFR   Marginal VFR   IFR   Intensive IFR   Very Intensive IFR
Visi :
Ceiling :
>= 8 km
>= 3000ft
5 to 8 km
1000 to 3000 ft
1500m to 5 km
500 to 1000 ft
800 to 1500m
200 to 500 ft
< 800m
< 200 ft
Symbols :   Thunderstorms  Fog  Heavy snow  Heavy precipitations  Wind > 20 kt
SIGMETs :     Misc.  Thunderstorms  Icing  Turbulence  Mountain Waves  Volcanic Ashes






- Airport Elevation : -11 ft
- IATA code : AMS


EHAM - Amsterdam Schiphol

CURRENT METAR :
  • 011225Z 29007KT 240V330 9999 -SHRA FEW011 FEW018CB BKN040 17/15 Q1009 NOSIG

EXPIRED METARs :
  • 011155Z 31013KT 9999 -SHRA FEW011 FEW018CB BKN035 17/14 Q1009 TEMPO 6000
  • 011125Z 31010KT 280V340 9999 FEW011 FEW018CB BKN038 19/15 Q1009 TEMPO 6000 -SHRA
  • 011055Z 29010KT 260V350 9999 -SHRA FEW011 FEW018CB BKN042 18/14 Q1008 TEMPO 5000 SHRA
  • 011025Z 35004KT 310V080 9999 VCSH FEW011 FEW018CB 18/16 Q1008 TEMPO 5000 SHRA

TAF TAF EHAM
Valid from the 01 at 12:00 until the 02 at 18:00 UTC


011111Z 0112/0218 31008KT 9999 SCT025
TEMPO 0112/0114 6000 -SHRA SCT018CB
BECMG 0118/0121 29005KT
BECMG 0215/0218 33008KT



MET'MAP, your aeronautical weather chart ! - Copyright ORBIFLY December 2007 - Disclaimer

ORBIFLY MET'MAP TEAM :

Programming & Development : Alexandra Zaïnal
Concept & original design : Baudouin d'Aumeries
Assistance for programming : Marc-Olivier Méhu
Technical & hardware support : Manuel Goepfert

Contact : metmap@orbifly.com




SOURCES & CREDITS :

   NOAA